Hanjin Malta — V7AQ7 — position and weather

sailwx.info

Track history (hours):
 
Tides and Currents Weather Stations Pressure Air Temp Water Temp Dewpoint Dewpoint Depression Visibility Wind Speed Wind Dir Waves Ship Positions

Hanjin Malta

Last reported at 2017-Dec-15 23:58 UTC. Time now 2017-Dec-16 03:39 UTC.
Position N 01°17' E 103°58'.

Length 290 m; draft 7 m.

Type: Cargo ship. MMSI: 538005050.

Date/timePositionNaut miles runAvg speedWind from/ knotsBaromVisibWave heightAir tempDewpointWater temp
2017-Dec-15 23:58N 01°17' E 103°58'0 0.0
2017-Dec-15 16:29N 01°17' E 103°58'2 2.6
2017-Dec-15 15:39N 01°16' E 103°57'0 2.0
2017-Dec-15 15:30N 01°15' E 103°57'2 3.3
2017-Dec-15 14:57N 01°14' E 103°56'4 8.0
2017-Dec-15 14:30N 01°12' E 103°53'3 5.9
2017-Dec-15 14:00N 01°11' E 103°50'3 5.5
2017-Dec-15 13:30N 01°10' E 103°48'3 6.4
2017-Dec-15 13:00N 01°08' E 103°45'3 6.5
2017-Dec-15 12:30N 01°05' E 103°43'4 7.7
2017-Dec-15 11:59N 01°04' E 103°39'4 7.9
2017-Dec-15 11:27N 01°05' E 103°36'4 8.2
2017-Dec-15 10:57N 01°07' E 103°32'3 6.9
2017-Dec-15 10:27N 01°09' E 103°29'4 7.4
2017-Dec-15 09:58N 01°10' E 103°26'4 9.3
2017-Dec-15 09:30N 01°13' E 103°22'  
Track history (hours):
 
Tides and Currents Weather Stations Pressure Air Temp Water Temp Dewpoint Dewpoint Depression Visibility Wind Speed Wind Dir Waves Ship Positions

Hanjin Malta

Last reported at 2017-Dec-15 23:58 UTC. Time now 2017-Dec-16 03:39 UTC.
Position N 01°17' E 103°58'.

Length 290 m; draft 7 m.

Type: Cargo ship. MMSI: 538005050.

Date/timePositionNaut miles runAvg speedWind from/ knotsBaromVisibWave heightAir tempDewpointWater temp
2017-Dec-15 23:58N 01°17' E 103°58'0 0.0
2017-Dec-15 16:29N 01°17' E 103°58'2 2.6
2017-Dec-15 15:39N 01°16' E 103°57'0 2.0
2017-Dec-15 15:30N 01°15' E 103°57'2 3.3
2017-Dec-15 14:57N 01°14' E 103°56'4 8.0
2017-Dec-15 14:30N 01°12' E 103°53'3 5.9
2017-Dec-15 14:00N 01°11' E 103°50'3 5.5
2017-Dec-15 13:30N 01°10' E 103°48'3 6.4
2017-Dec-15 13:00N 01°08' E 103°45'3 6.5
2017-Dec-15 12:30N 01°05' E 103°43'4 7.7
2017-Dec-15 11:59N 01°04' E 103°39'4 7.9
2017-Dec-15 11:27N 01°05' E 103°36'4 8.2
2017-Dec-15 10:57N 01°07' E 103°32'3 6.9
2017-Dec-15 10:27N 01°09' E 103°29'4 7.4
2017-Dec-15 09:58N 01°10' E 103°26'4 9.3
2017-Dec-15 09:30N 01°13' E 103°22'  

Dump ship's entire track history